sensor_id;sensor_type;location;lat;lon;timestamp;temperature;humidity
41469;DHT22;27206;47.032;15.484;2023-05-10T00:00:33;8.80;1.00
41469;DHT22;27206;47.032;15.484;2023-05-10T00:02:59;8.70;1.00
41469;DHT22;27206;47.032;15.484;2023-05-10T00:05:25;8.60;1.00
41469;DHT22;27206;47.032;15.484;2023-05-10T00:07:51;8.60;1.00
41469;DHT22;27206;47.032;15.484;2023-05-10T00:10:16;8.70;1.00
41469;DHT22;27206;47.032;15.484;2023-05-10T00:12:42;8.60;1.00
41469;DHT22;27206;47.032;15.484;2023-05-10T00:15:08;8.60;1.00
41469;DHT22;27206;47.032;15.484;2023-05-10T00:17:34;8.60;1.00
41469;DHT22;27206;47.032;15.484;2023-05-10T00:20:00;8.60;1.00
41469;DHT22;27206;47.032;15.484;2023-05-10T00:22:26;8.50;1.00
41469;DHT22;27206;47.032;15.484;2023-05-10T00:24:51;8.40;1.00
41469;DHT22;27206;47.032;15.484;2023-05-10T00:27:17;8.40;1.00
41469;DHT22;27206;47.032;15.484;2023-05-10T00:29:42;8.40;1.00
41469;DHT22;27206;47.032;15.484;2023-05-10T00:32:08;8.40;1.00
41469;DHT22;27206;47.032;15.484;2023-05-10T00:34:34;8.30;1.00
41469;DHT22;27206;47.032;15.484;2023-05-10T00:36:59;8.30;1.00
41469;DHT22;27206;47.032;15.484;2023-05-10T00:39:25;8.30;1.00
41469;DHT22;27206;47.032;15.484;2023-05-10T00:41:52;8.30;1.00
41469;DHT22;27206;47.032;15.484;2023-05-10T00:44:17;8.20;1.00
41469;DHT22;27206;47.032;15.484;2023-05-10T00:46:44;8.20;1.00
41469;DHT22;27206;47.032;15.484;2023-05-10T00:49:10;8.20;1.00
41469;DHT22;27206;47.032;15.484;2023-05-10T00:51:36;8.00;1.00
41469;DHT22;27206;47.032;15.484;2023-05-10T00:54:02;8.00;1.00
41469;DHT22;27206;47.032;15.484;2023-05-10T00:56:28;8.00;1.00
41469;DHT22;27206;47.032;15.484;2023-05-10T00:58:55;8.00;1.00
41469;DHT22;27206;47.032;15.484;2023-05-10T01:01:21;7.90;1.00
41469;DHT22;27206;47.032;15.484;2023-05-10T01:03:47;7.80;1.00
41469;DHT22;27206;47.032;15.484;2023-05-10T01:06:13;7.90;1.00
41469;DHT22;27206;47.032;15.484;2023-05-10T01:08:39;7.90;1.00
41469;DHT22;27206;47.032;15.484;2023-05-10T01:11:05;7.80;1.00
41469;DHT22;27206;47.032;15.484;2023-05-10T01:13:36;7.80;1.00
41469;DHT22;27206;47.032;15.484;2023-05-10T01:16:03;7.90;1.00
41469;DHT22;27206;47.032;15.484;2023-05-10T01:18:30;7.90;1.00
41469;DHT22;27206;47.032;15.484;2023-05-10T01:24:10;7.80;1.00
41469;DHT22;27206;47.032;15.484;2023-05-10T01:35:07;7.70;1.00
41469;DHT22;27206;47.032;15.484;2023-05-10T01:40:38;7.50;1.00
41469;DHT22;27206;47.032;15.484;2023-05-10T01:43:10;7.40;1.00
41469;DHT22;27206;47.032;15.484;2023-05-10T01:45:54;7.40;1.00
41469;DHT22;27206;47.032;15.484;2023-05-10T01:48:25;7.40;1.00
41469;DHT22;27206;47.032;15.484;2023-05-10T01:50:53;7.50;1.00
41469;DHT22;27206;47.032;15.484;2023-05-10T01:53:20;7.50;1.00
41469;DHT22;27206;47.032;15.484;2023-05-10T01:55:49;7.50;1.00
41469;DHT22;27206;47.032;15.484;2023-05-10T01:58:28;7.50;1.00
41469;DHT22;27206;47.032;15.484;2023-05-10T02:00:55;7.40;1.00
41469;DHT22;27206;47.032;15.484;2023-05-10T02:03:24;7.30;1.00
41469;DHT22;27206;47.032;15.484;2023-05-10T02:05:52;7.30;1.00
41469;DHT22;27206;47.032;15.484;2023-05-10T02:08:21;7.10;1.00
41469;DHT22;27206;47.032;15.484;2023-05-10T02:10:50;7.20;1.00
41469;DHT22;27206;47.032;15.484;2023-05-10T02:13:18;7.20;1.00
41469;DHT22;27206;47.032;15.484;2023-05-10T02:15:47;7.20;1.00
41469;DHT22;27206;47.032;15.484;2023-05-10T02:18:13;7.10;1.00
41469;DHT22;27206;47.032;15.484;2023-05-10T02:20:41;7.10;1.00
41469;DHT22;27206;47.032;15.484;2023-05-10T02:23:08;7.10;1.00
41469;DHT22;27206;47.032;15.484;2023-05-10T02:25:35;7.10;1.00
41469;DHT22;27206;47.032;15.484;2023-05-10T02:28:05;7.00;1.00
41469;DHT22;27206;47.032;15.484;2023-05-10T02:30:33;7.00;1.00
41469;DHT22;27206;47.032;15.484;2023-05-10T02:32:59;7.10;1.00
41469;DHT22;27206;47.032;15.484;2023-05-10T02:35:27;7.00;1.00
41469;DHT22;27206;47.032;15.484;2023-05-10T02:37:54;7.00;1.00
41469;DHT22;27206;47.032;15.484;2023-05-10T02:40:21;7.00;1.00
41469;DHT22;27206;47.032;15.484;2023-05-10T02:42:50;6.90;1.00
41469;DHT22;27206;47.032;15.484;2023-05-10T02:45:20;6.80;1.00
41469;DHT22;27206;47.032;15.484;2023-05-10T02:47:47;6.80;1.00
41469;DHT22;27206;47.032;15.484;2023-05-10T02:50:13;6.80;1.00
41469;DHT22;27206;47.032;15.484;2023-05-10T02:52:46;6.80;1.00
41469;DHT22;27206;47.032;15.484;2023-05-10T02:55:14;6.80;1.00
41469;DHT22;27206;47.032;15.484;2023-05-10T02:57:46;6.90;1.00
41469;DHT22;27206;47.032;15.484;2023-05-10T03:00:13;6.90;1.00
41469;DHT22;27206;47.032;15.484;2023-05-10T03:02:39;6.90;1.00
41469;DHT22;27206;47.032;15.484;2023-05-10T03:05:05;6.80;1.00
41469;DHT22;27206;47.032;15.484;2023-05-10T03:07:31;6.80;1.00
41469;DHT22;27206;47.032;15.484;2023-05-10T03:09:57;6.80;1.00
41469;DHT22;27206;47.032;15.484;2023-05-10T03:12:41;6.80;1.00
41469;DHT22;27206;47.032;15.484;2023-05-10T03:18:10;6.60;1.00
41469;DHT22;27206;47.032;15.484;2023-05-10T03:20:59;6.70;1.00
41469;DHT22;27206;47.032;15.484;2023-05-10T03:23:35;6.70;1.00
41469;DHT22;27206;47.032;15.484;2023-05-10T03:26:04;6.70;1.00
41469;DHT22;27206;47.032;15.484;2023-05-10T03:28:31;6.60;1.00
41469;DHT22;27206;47.032;15.484;2023-05-10T03:30:59;6.50;1.00
41469;DHT22;27206;47.032;15.484;2023-05-10T03:33:25;6.50;1.00
41469;DHT22;27206;47.032;15.484;2023-05-10T03:35:51;6.60;1.00
41469;DHT22;27206;47.032;15.484;2023-05-10T03:38:16;6.60;1.00
41469;DHT22;27206;47.032;15.484;2023-05-10T03:40:42;6.60;1.00
41469;DHT22;27206;47.032;15.484;2023-05-10T03:43:08;6.60;1.00
41469;DHT22;27206;47.032;15.484;2023-05-10T03:45:33;6.60;1.00
41469;DHT22;27206;47.032;15.484;2023-05-10T03:48:00;6.50;1.00
41469;DHT22;27206;47.032;15.484;2023-05-10T03:50:25;6.40;1.00
41469;DHT22;27206;47.032;15.484;2023-05-10T03:52:51;6.40;1.00
41469;DHT22;27206;47.032;15.484;2023-05-10T03:55:17;6.50;1.00
41469;DHT22;27206;47.032;15.484;2023-05-10T03:57:43;6.50;1.00
41469;DHT22;27206;47.032;15.484;2023-05-10T04:00:09;6.50;1.00
41469;DHT22;27206;47.032;15.484;2023-05-10T04:02:35;6.60;1.00
41469;DHT22;27206;47.032;15.484;2023-05-10T04:05:01;6.60;1.00
41469;DHT22;27206;47.032;15.484;2023-05-10T04:07:27;6.70;1.00
41469;DHT22;27206;47.032;15.484;2023-05-10T04:09:53;6.80;1.00
41469;DHT22;27206;47.032;15.484;2023-05-10T04:12:18;6.70;1.00
41469;DHT22;27206;47.032;15.484;2023-05-10T04:14:44;6.70;1.00
41469;DHT22;27206;47.032;15.484;2023-05-10T04:17:10;6.80;1.00
41469;DHT22;27206;47.032;15.484;2023-05-10T04:19:35;6.80;1.00
41469;DHT22;27206;47.032;15.484;2023-05-10T04:22:02;6.90;1.00
41469;DHT22;27206;47.032;15.484;2023-05-10T04:24:28;6.90;1.00
41469;DHT22;27206;47.032;15.484;2023-05-10T04:26:54;7.00;1.00
41469;DHT22;27206;47.032;15.484;2023-05-10T04:29:20;7.00;1.00
41469;DHT22;27206;47.032;15.484;2023-05-10T04:31:48;7.10;1.00
41469;DHT22;27206;47.032;15.484;2023-05-10T04:34:14;7.10;1.00
41469;DHT22;27206;47.032;15.484;2023-05-10T04:36:39;7.20;1.00
41469;DHT22;27206;47.032;15.484;2023-05-10T04:39:05;7.20;1.00
41469;DHT22;27206;47.032;15.484;2023-05-10T04:41:31;7.20;1.00
41469;DHT22;27206;47.032;15.484;2023-05-10T04:43:56;7.30;1.00
41469;DHT22;27206;47.032;15.484;2023-05-10T04:46:22;7.40;1.00
41469;DHT22;27206;47.032;15.484;2023-05-10T04:48:48;7.50;1.00
41469;DHT22;27206;47.032;15.484;2023-05-10T04:51:13;7.60;1.00
41469;DHT22;27206;47.032;15.484;2023-05-10T04:53:39;7.60;1.00
41469;DHT22;27206;47.032;15.484;2023-05-10T04:56:05;7.70;1.00
41469;DHT22;27206;47.032;15.484;2023-05-10T04:58:31;7.80;1.00
41469;DHT22;27206;47.032;15.484;2023-05-10T05:00:57;7.90;1.00
41469;DHT22;27206;47.032;15.484;2023-05-10T05:03:22;7.90;1.00
41469;DHT22;27206;47.032;15.484;2023-05-10T05:05:48;8.00;1.00
41469;DHT22;27206;47.032;15.484;2023-05-10T05:08:14;8.00;1.00
41469;DHT22;27206;47.032;15.484;2023-05-10T05:10:39;8.10;1.00
41469;DHT22;27206;47.032;15.484;2023-05-10T05:13:05;8.10;1.00
41469;DHT22;27206;47.032;15.484;2023-05-10T05:15:31;8.20;1.00
41469;DHT22;27206;47.032;15.484;2023-05-10T05:17:57;8.20;1.00
41469;DHT22;27206;47.032;15.484;2023-05-10T05:20:23;8.30;1.00
41469;DHT22;27206;47.032;15.484;2023-05-10T05:22:48;8.40;1.00
41469;DHT22;27206;47.032;15.484;2023-05-10T05:25:14;8.50;1.00
41469;DHT22;27206;47.032;15.484;2023-05-10T05:27:40;8.50;1.00
41469;DHT22;27206;47.032;15.484;2023-05-10T05:30:06;8.60;1.00
41469;DHT22;27206;47.032;15.484;2023-05-10T05:32:32;8.60;1.00
41469;DHT22;27206;47.032;15.484;2023-05-10T05:34:58;8.60;1.00
41469;DHT22;27206;47.032;15.484;2023-05-10T05:37:23;8.70;1.00
41469;DHT22;27206;47.032;15.484;2023-05-10T05:39:49;8.70;1.00
41469;DHT22;27206;47.032;15.484;2023-05-10T05:42:15;8.70;1.00
41469;DHT22;27206;47.032;15.484;2023-05-10T05:44:43;8.90;1.00
41469;DHT22;27206;47.032;15.484;2023-05-10T05:47:09;9.00;1.00
41469;DHT22;27206;47.032;15.484;2023-05-10T05:49:34;9.10;99.90
41469;DHT22;27206;47.032;15.484;2023-05-10T05:52:01;9.20;99.90
41469;DHT22;27206;47.032;15.484;2023-05-10T05:54:27;9.30;1.00
41469;DHT22;27206;47.032;15.484;2023-05-10T05:57:00;9.30;1.00
41469;DHT22;27206;47.032;15.484;2023-05-10T05:59:26;9.40;1.00
41469;DHT22;27206;47.032;15.484;2023-05-10T06:01:52;9.60;99.90
41469;DHT22;27206;47.032;15.484;2023-05-10T06:04:18;9.60;99.90
41469;DHT22;27206;47.032;15.484;2023-05-10T06:06:44;9.90;99.90
41469;DHT22;27206;47.032;15.484;2023-05-10T06:09:10;10.10;99.90
41469;DHT22;27206;47.032;15.484;2023-05-10T06:11:36;10.10;99.90
41469;DHT22;27206;47.032;15.484;2023-05-10T06:14:02;10.20;99.90
41469;DHT22;27206;47.032;15.484;2023-05-10T06:16:29;10.30;99.90
41469;DHT22;27206;47.032;15.484;2023-05-10T06:18:54;10.30;99.90
41469;DHT22;27206;47.032;15.484;2023-05-10T06:21:20;10.30;99.90
41469;DHT22;27206;47.032;15.484;2023-05-10T06:23:48;10.30;99.90
41469;DHT22;27206;47.032;15.484;2023-05-10T06:26:14;10.30;99.90
41469;DHT22;27206;47.032;15.484;2023-05-10T06:28:39;10.50;99.90
41469;DHT22;27206;47.032;15.484;2023-05-10T06:31:06;10.70;99.90
41469;DHT22;27206;47.032;15.484;2023-05-10T06:33:32;10.90;99.90
41469;DHT22;27206;47.032;15.484;2023-05-10T06:35:57;11.00;99.90
41469;DHT22;27206;47.032;15.484;2023-05-10T06:38:23;11.00;99.90
41469;DHT22;27206;47.032;15.484;2023-05-10T06:40:49;11.00;99.90
41469;DHT22;27206;47.032;15.484;2023-05-10T06:43:15;11.30;99.90
41469;DHT22;27206;47.032;15.484;2023-05-10T06:45:41;11.40;99.90
41469;DHT22;27206;47.032;15.484;2023-05-10T06:48:06;11.40;99.90
41469;DHT22;27206;47.032;15.484;2023-05-10T06:50:33;11.60;99.90
41469;DHT22;27206;47.032;15.484;2023-05-10T06:52:59;11.80;99.90
41469;DHT22;27206;47.032;15.484;2023-05-10T06:55:25;11.80;99.90
41469;DHT22;27206;47.032;15.484;2023-05-10T06:57:51;11.80;99.90
41469;DHT22;27206;47.032;15.484;2023-05-10T07:00:18;12.00;99.90
41469;DHT22;27206;47.032;15.484;2023-05-10T07:02:44;12.20;99.90
41469;DHT22;27206;47.032;15.484;2023-05-10T07:05:09;12.30;99.90
41469;DHT22;27206;47.032;15.484;2023-05-10T07:07:35;12.30;99.90
41469;DHT22;27206;47.032;15.484;2023-05-10T07:10:01;12.40;99.90
41469;DHT22;27206;47.032;15.484;2023-05-10T07:12:27;12.60;99.90
41469;DHT22;27206;47.032;15.484;2023-05-10T07:14:53;12.70;99.90
41469;DHT22;27206;47.032;15.484;2023-05-10T07:17:18;12.50;99.90
41469;DHT22;27206;47.032;15.484;2023-05-10T07:19:44;12.90;99.90
41469;DHT22;27206;47.032;15.484;2023-05-10T07:22:09;12.80;99.90
41469;DHT22;27206;47.032;15.484;2023-05-10T07:24:35;12.80;99.90
41469;DHT22;27206;47.032;15.484;2023-05-10T07:27:01;12.90;99.90
41469;DHT22;27206;47.032;15.484;2023-05-10T07:29:27;12.90;99.90
41469;DHT22;27206;47.032;15.484;2023-05-10T07:31:54;13.10;99.90
41469;DHT22;27206;47.032;15.484;2023-05-10T07:34:19;13.40;99.90
41469;DHT22;27206;47.032;15.484;2023-05-10T07:36:45;13.60;99.90
41469;DHT22;27206;47.032;15.484;2023-05-10T07:39:11;13.60;99.90
41469;DHT22;27206;47.032;15.484;2023-05-10T07:41:36;13.70;99.90
41469;DHT22;27206;47.032;15.484;2023-05-10T07:44:03;13.70;99.90
41469;DHT22;27206;47.032;15.484;2023-05-10T07:46:29;13.90;99.90
41469;DHT22;27206;47.032;15.484;2023-05-10T07:48:55;13.90;99.90
41469;DHT22;27206;47.032;15.484;2023-05-10T07:51:21;13.80;99.90
41469;DHT22;27206;47.032;15.484;2023-05-10T07:53:46;13.90;99.90
41469;DHT22;27206;47.032;15.484;2023-05-10T07:56:27;14.00;99.90
41469;DHT22;27206;47.032;15.484;2023-05-10T07:58:59;14.10;99.90
41469;DHT22;27206;47.032;15.484;2023-05-10T08:01:25;14.10;99.90
41469;DHT22;27206;47.032;15.484;2023-05-10T08:03:51;14.00;99.90
41469;DHT22;27206;47.032;15.484;2023-05-10T08:06:19;14.00;99.90
41469;DHT22;27206;47.032;15.484;2023-05-10T08:08:48;14.10;99.90
41469;DHT22;27206;47.032;15.484;2023-05-10T08:11:19;14.50;99.90
41469;DHT22;27206;47.032;15.484;2023-05-10T08:13:46;14.60;99.90
41469;DHT22;27206;47.032;15.484;2023-05-10T08:16:12;14.60;99.90
41469;DHT22;27206;47.032;15.484;2023-05-10T08:18:38;14.60;99.90
41469;DHT22;27206;47.032;15.484;2023-05-10T08:21:04;14.50;99.90
41469;DHT22;27206;47.032;15.484;2023-05-10T08:23:29;14.80;99.90
41469;DHT22;27206;47.032;15.484;2023-05-10T08:25:55;14.90;99.90
41469;DHT22;27206;47.032;15.484;2023-05-10T08:28:21;14.90;99.90
41469;DHT22;27206;47.032;15.484;2023-05-10T08:30:46;14.80;99.90
41469;DHT22;27206;47.032;15.484;2023-05-10T08:33:12;15.00;99.90
41469;DHT22;27206;47.032;15.484;2023-05-10T08:35:37;15.20;99.90
41469;DHT22;27206;47.032;15.484;2023-05-10T08:38:03;15.20;99.90
41469;DHT22;27206;47.032;15.484;2023-05-10T08:40:29;15.20;99.90
41469;DHT22;27206;47.032;15.484;2023-05-10T08:43:09;15.40;99.90
41469;DHT22;27206;47.032;15.484;2023-05-10T08:45:40;15.40;99.90
41469;DHT22;27206;47.032;15.484;2023-05-10T08:48:08;15.40;99.90
41469;DHT22;27206;47.032;15.484;2023-05-10T08:50:36;15.50;99.90
41469;DHT22;27206;47.032;15.484;2023-05-10T08:53:05;15.40;99.90
41469;DHT22;27206;47.032;15.484;2023-05-10T08:55:32;15.70;99.90
41469;DHT22;27206;47.032;15.484;2023-05-10T08:57:59;15.80;99.90
41469;DHT22;27206;47.032;15.484;2023-05-10T09:00:25;16.10;99.90
41469;DHT22;27206;47.032;15.484;2023-05-10T09:02:52;16.10;99.90
41469;DHT22;27206;47.032;15.484;2023-05-10T09:05:17;15.90;99.90
41469;DHT22;27206;47.032;15.484;2023-05-10T09:07:43;16.00;99.90
41469;DHT22;27206;47.032;15.484;2023-05-10T09:10:11;16.20;99.90
41469;DHT22;27206;47.032;15.484;2023-05-10T09:12:37;16.30;99.90
41469;DHT22;27206;47.032;15.484;2023-05-10T09:15:04;16.60;99.90
41469;DHT22;27206;47.032;15.484;2023-05-10T09:17:31;16.60;99.90
41469;DHT22;27206;47.032;15.484;2023-05-10T09:20:00;16.50;99.90
41469;DHT22;27206;47.032;15.484;2023-05-10T09:22:26;16.70;99.90
41469;DHT22;27206;47.032;15.484;2023-05-10T09:25:12;16.60;99.90
41469;DHT22;27206;47.032;15.484;2023-05-10T09:27:40;16.90;99.90
41469;DHT22;27206;47.032;15.484;2023-05-10T09:30:06;17.40;99.90
41469;DHT22;27206;47.032;15.484;2023-05-10T09:32:43;17.50;99.90
41469;DHT22;27206;47.032;15.484;2023-05-10T09:35:14;17.90;99.90
41469;DHT22;27206;47.032;15.484;2023-05-10T09:37:43;18.20;99.90
41469;DHT22;27206;47.032;15.484;2023-05-10T09:40:20;17.90;99.90
41469;DHT22;27206;47.032;15.484;2023-05-10T09:45:17;17.30;99.90
41469;DHT22;27206;47.032;15.484;2023-05-10T09:47:43;17.60;99.90
41469;DHT22;27206;47.032;15.484;2023-05-10T09:50:09;17.70;99.90
41469;DHT22;27206;47.032;15.484;2023-05-10T09:52:55;17.80;99.90
41469;DHT22;27206;47.032;15.484;2023-05-10T09:55:24;17.40;99.90
41469;DHT22;27206;47.032;15.484;2023-05-10T09:57:59;17.90;99.90
41469;DHT22;27206;47.032;15.484;2023-05-10T10:00:27;18.00;99.90
41469;DHT22;27206;47.032;15.484;2023-05-10T10:02:58;18.20;99.90
41469;DHT22;27206;47.032;15.484;2023-05-10T10:05:34;18.20;99.90
41469;DHT22;27206;47.032;15.484;2023-05-10T10:08:02;18.40;99.90
41469;DHT22;27206;47.032;15.484;2023-05-10T10:10:29;18.70;99.90
41469;DHT22;27206;47.032;15.484;2023-05-10T10:12:55;18.60;99.90
41469;DHT22;27206;47.032;15.484;2023-05-10T10:15:21;19.00;99.90
41469;DHT22;27206;47.032;15.484;2023-05-10T10:17:48;19.00;99.90
41469;DHT22;27206;47.032;15.484;2023-05-10T10:20:14;19.50;99.90
41469;DHT22;27206;47.032;15.484;2023-05-10T10:22:40;19.60;99.90
41469;DHT22;27206;47.032;15.484;2023-05-10T10:25:07;19.60;99.90
41469;DHT22;27206;47.032;15.484;2023-05-10T10:27:59;20.00;99.90
41469;DHT22;27206;47.032;15.484;2023-05-10T10:33:36;19.60;99.90
41469;DHT22;27206;47.032;15.484;2023-05-10T10:36:04;19.50;99.90
41469;DHT22;27206;47.032;15.484;2023-05-10T10:41:32;18.70;99.90
41469;DHT22;27206;47.032;15.484;2023-05-10T10:49:51;19.50;99.90
41469;DHT22;27206;47.032;15.484;2023-05-10T10:52:39;19.70;99.90
41469;DHT22;27206;47.032;15.484;2023-05-10T10:57:45;19.00;99.90
41469;DHT22;27206;47.032;15.484;2023-05-10T11:00:24;18.60;99.90
41469;DHT22;27206;47.032;15.484;2023-05-10T11:07:59;18.40;99.90
41469;DHT22;27206;47.032;15.484;2023-05-10T11:10:26;18.40;99.90
41469;DHT22;27206;47.032;15.484;2023-05-10T11:13:03;18.50;99.90
41469;DHT22;27206;47.032;15.484;2023-05-10T11:15:32;18.30;99.90
41469;DHT22;27206;47.032;15.484;2023-05-10T11:17:59;18.30;99.90
41469;DHT22;27206;47.032;15.484;2023-05-10T11:20:27;18.30;99.90
41469;DHT22;27206;47.032;15.484;2023-05-10T11:23:10;18.10;99.90
41469;DHT22;27206;47.032;15.484;2023-05-10T11:25:44;18.00;99.90
41469;DHT22;27206;47.032;15.484;2023-05-10T11:28:11;18.00;99.90
41469;DHT22;27206;47.032;15.484;2023-05-10T11:30:38;17.70;99.90
41469;DHT22;27206;47.032;15.484;2023-05-10T11:33:06;17.80;99.90
41469;DHT22;27206;47.032;15.484;2023-05-10T11:35:37;17.70;99.90
41469;DHT22;27206;47.032;15.484;2023-05-10T11:38:08;17.80;99.90
41469;DHT22;27206;47.032;15.484;2023-05-10T11:40:35;17.90;99.90
41469;DHT22;27206;47.032;15.484;2023-05-10T11:43:02;17.70;99.90
41469;DHT22;27206;47.032;15.484;2023-05-10T11:45:28;17.50;99.90
41469;DHT22;27206;47.032;15.484;2023-05-10T11:47:55;17.60;99.90
41469;DHT22;27206;47.032;15.484;2023-05-10T11:50:22;17.40;99.90
41469;DHT22;27206;47.032;15.484;2023-05-10T11:52:52;17.60;99.90
41469;DHT22;27206;47.032;15.484;2023-05-10T11:55:18;17.60;99.90
41469;DHT22;27206;47.032;15.484;2023-05-10T11:57:43;17.60;99.90
41469;DHT22;27206;47.032;15.484;2023-05-10T12:00:14;17.40;99.90
41469;DHT22;27206;47.032;15.484;2023-05-10T12:02:40;17.60;99.90
41469;DHT22;27206;47.032;15.484;2023-05-10T12:05:06;17.60;99.90
41469;DHT22;27206;47.032;15.484;2023-05-10T12:07:33;17.10;99.90
41469;DHT22;27206;47.032;15.484;2023-05-10T12:10:12;17.10;99.90
41469;DHT22;27206;47.032;15.484;2023-05-10T12:12:45;17.30;99.90
41469;DHT22;27206;47.032;15.484;2023-05-10T12:15:18;17.30;99.90
41469;DHT22;27206;47.032;15.484;2023-05-10T12:17:48;17.30;99.90
41469;DHT22;27206;47.032;15.484;2023-05-10T12:25:14;17.30;99.90
41469;DHT22;27206;47.032;15.484;2023-05-10T12:27:46;17.20;99.90
41469;DHT22;27206;47.032;15.484;2023-05-10T12:30:13;17.30;99.90
41469;DHT22;27206;47.032;15.484;2023-05-10T12:32:44;17.10;99.90
41469;DHT22;27206;47.032;15.484;2023-05-10T12:35:09;17.10;99.90
41469;DHT22;27206;47.032;15.484;2023-05-10T12:37:36;17.30;99.90
41469;DHT22;27206;47.032;15.484;2023-05-10T12:40:08;17.30;99.90
41469;DHT22;27206;47.032;15.484;2023-05-10T12:42:35;17.40;99.90
41469;DHT22;27206;47.032;15.484;2023-05-10T12:45:04;17.50;99.90
41469;DHT22;27206;47.032;15.484;2023-05-10T12:47:31;17.40;99.90
41469;DHT22;27206;47.032;15.484;2023-05-10T12:49:57;17.30;99.90
41469;DHT22;27206;47.032;15.484;2023-05-10T12:52:24;17.30;99.90
41469;DHT22;27206;47.032;15.484;2023-05-10T12:54:50;17.20;99.90
41469;DHT22;27206;47.032;15.484;2023-05-10T12:57:15;17.10;99.90
41469;DHT22;27206;47.032;15.484;2023-05-10T12:59:41;17.10;99.90
41469;DHT22;27206;47.032;15.484;2023-05-10T13:02:08;17.10;99.90
41469;DHT22;27206;47.032;15.484;2023-05-10T13:04:33;17.00;99.90
41469;DHT22;27206;47.032;15.484;2023-05-10T13:06:59;17.00;99.90
41469;DHT22;27206;47.032;15.484;2023-05-10T13:09:26;17.00;99.90
41469;DHT22;27206;47.032;15.484;2023-05-10T13:11:52;17.00;99.90
41469;DHT22;27206;47.032;15.484;2023-05-10T13:14:19;16.90;99.90
41469;DHT22;27206;47.032;15.484;2023-05-10T13:16:46;16.80;99.90
41469;DHT22;27206;47.032;15.484;2023-05-10T13:19:13;16.80;99.90
41469;DHT22;27206;47.032;15.484;2023-05-10T13:21:38;16.80;99.90
41469;DHT22;27206;47.032;15.484;2023-05-10T13:24:06;16.70;99.90
41469;DHT22;27206;47.032;15.484;2023-05-10T13:26:32;16.70;99.90
41469;DHT22;27206;47.032;15.484;2023-05-10T13:28:57;16.60;99.90
41469;DHT22;27206;47.032;15.484;2023-05-10T13:31:23;16.70;99.90
41469;DHT22;27206;47.032;15.484;2023-05-10T13:33:49;16.80;99.90
41469;DHT22;27206;47.032;15.484;2023-05-10T13:36:14;16.80;99.90
41469;DHT22;27206;47.032;15.484;2023-05-10T13:38:40;16.90;99.90
41469;DHT22;27206;47.032;15.484;2023-05-10T13:41:06;16.90;99.90
41469;DHT22;27206;47.032;15.484;2023-05-10T13:43:33;17.00;99.90
41469;DHT22;27206;47.032;15.484;2023-05-10T13:45:58;17.00;99.90
41469;DHT22;27206;47.032;15.484;2023-05-10T13:48:24;17.10;99.90
41469;DHT22;27206;47.032;15.484;2023-05-10T13:50:49;17.30;99.90
41469;DHT22;27206;47.032;15.484;2023-05-10T13:53:15;17.40;99.90
41469;DHT22;27206;47.032;15.484;2023-05-10T13:55:41;17.60;99.90
41469;DHT22;27206;47.032;15.484;2023-05-10T13:58:06;17.90;99.90
41469;DHT22;27206;47.032;15.484;2023-05-10T14:00:32;18.10;99.90
41469;DHT22;27206;47.032;15.484;2023-05-10T14:02:58;18.20;99.90
41469;DHT22;27206;47.032;15.484;2023-05-10T14:05:23;18.40;99.90
41469;DHT22;27206;47.032;15.484;2023-05-10T14:07:50;18.30;99.90
41469;DHT22;27206;47.032;15.484;2023-05-10T14:10:16;18.30;99.90
41469;DHT22;27206;47.032;15.484;2023-05-10T14:12:41;18.20;99.90
41469;DHT22;27206;47.032;15.484;2023-05-10T14:15:07;18.00;99.90
41469;DHT22;27206;47.032;15.484;2023-05-10T14:17:35;17.90;99.90
41469;DHT22;27206;47.032;15.484;2023-05-10T14:20:01;17.70;99.90
41469;DHT22;27206;47.032;15.484;2023-05-10T14:22:27;17.60;99.90
41469;DHT22;27206;47.032;15.484;2023-05-10T14:24:53;17.90;99.90
41469;DHT22;27206;47.032;15.484;2023-05-10T14:27:18;17.80;99.90
41469;DHT22;27206;47.032;15.484;2023-05-10T14:29:44;17.70;99.90
41469;DHT22;27206;47.032;15.484;2023-05-10T14:32:10;17.80;99.90
41469;DHT22;27206;47.032;15.484;2023-05-10T14:34:36;17.90;99.90
41469;DHT22;27206;47.032;15.484;2023-05-10T14:37:01;17.80;99.90
41469;DHT22;27206;47.032;15.484;2023-05-10T14:39:27;17.80;99.90
41469;DHT22;27206;47.032;15.484;2023-05-10T14:41:55;17.80;99.90
41469;DHT22;27206;47.032;15.484;2023-05-10T14:44:21;17.80;99.90
41469;DHT22;27206;47.032;15.484;2023-05-10T14:46:47;17.80;99.90
41469;DHT22;27206;47.032;15.484;2023-05-10T14:49:13;17.80;99.90
41469;DHT22;27206;47.032;15.484;2023-05-10T14:51:39;18.00;99.90
41469;DHT22;27206;47.032;15.484;2023-05-10T14:54:05;18.30;99.90
41469;DHT22;27206;47.032;15.484;2023-05-10T14:56:31;18.30;99.90
41469;DHT22;27206;47.032;15.484;2023-05-10T14:58:57;18.30;99.90
41469;DHT22;27206;47.032;15.484;2023-05-10T15:01:22;18.20;99.90
41469;DHT22;27206;47.032;15.484;2023-05-10T15:03:48;18.40;99.90
41469;DHT22;27206;47.032;15.484;2023-05-10T15:06:14;18.70;99.90
41469;DHT22;27206;47.032;15.484;2023-05-10T15:08:41;18.70;99.90
41469;DHT22;27206;47.032;15.484;2023-05-10T15:11:06;18.70;99.90
41469;DHT22;27206;47.032;15.484;2023-05-10T15:13:32;18.90;99.90
41469;DHT22;27206;47.032;15.484;2023-05-10T15:15:58;18.90;99.90
41469;DHT22;27206;47.032;15.484;2023-05-10T15:18:23;18.70;99.90
41469;DHT22;27206;47.032;15.484;2023-05-10T15:20:49;18.70;99.90
41469;DHT22;27206;47.032;15.484;2023-05-10T15:23:14;18.80;99.90
41469;DHT22;27206;47.032;15.484;2023-05-10T15:25:40;19.10;99.90
41469;DHT22;27206;47.032;15.484;2023-05-10T15:28:06;18.80;99.90
41469;DHT22;27206;47.032;15.484;2023-05-10T15:30:31;18.90;99.90
41469;DHT22;27206;47.032;15.484;2023-05-10T15:32:57;18.90;99.90
41469;DHT22;27206;47.032;15.484;2023-05-10T15:35:23;18.60;99.90
41469;DHT22;27206;47.032;15.484;2023-05-10T15:37:48;18.60;99.90
41469;DHT22;27206;47.032;15.484;2023-05-10T15:40:17;18.70;99.90
41469;DHT22;27206;47.032;15.484;2023-05-10T15:42:42;18.90;99.90
41469;DHT22;27206;47.032;15.484;2023-05-10T15:45:09;19.30;99.90
41469;DHT22;27206;47.032;15.484;2023-05-10T15:47:35;18.70;99.90
41469;DHT22;27206;47.032;15.484;2023-05-10T15:50:00;18.90;99.90
41469;DHT22;27206;47.032;15.484;2023-05-10T15:52:26;18.80;99.90
41469;DHT22;27206;47.032;15.484;2023-05-10T15:54:52;18.50;99.90
41469;DHT22;27206;47.032;15.484;2023-05-10T15:57:18;18.40;99.90
41469;DHT22;27206;47.032;15.484;2023-05-10T15:59:43;18.40;99.90
41469;DHT22;27206;47.032;15.484;2023-05-10T16:02:10;18.10;99.90
41469;DHT22;27206;47.032;15.484;2023-05-10T16:04:36;18.00;99.90
41469;DHT22;27206;47.032;15.484;2023-05-10T16:07:02;17.90;99.90
41469;DHT22;27206;47.032;15.484;2023-05-10T16:09:28;17.80;99.90
41469;DHT22;27206;47.032;15.484;2023-05-10T16:11:53;17.70;99.90